Time;durP1;ratioP1;P1;durP2;ratioP2;P2;SDS_P1;SDS_P2;PMS_P1;PMS_P2;Temp;Humidity;BMP_temperature;BMP_pressure;BME280_temperature;BME280_humidity;BME280_pressure;Samples;Min_cycle;Max_cycle;Signal;HPM_P1;HPM_P2
2023/07/04 00:01:06;;;;;;;16.70;6.03;;;;;;;16.63;100.00;99993.69;4992623;28;20030;-79
2023/07/04 00:03:31;;;;;;;19.83;5.85;;;;;;;16.58;100.00;99982.22;4992527;28;20414;-82
2023/07/04 00:05:58;;;;;;;15.13;7.07;;;;;;;16.58;100.00;99988.00;4991190;28;20478;-80
2023/07/04 00:08:25;;;;;;;15.57;6.28;;;;;;;16.55;100.00;99995.63;5007496;28;20416;-82
2023/07/04 00:10:51;;;;;;;13.50;5.78;;;;;;;16.44;100.00;99984.97;4991162;28;20023;-81
2023/07/04 00:13:17;;;;;;;14.38;6.90;;;;;;;16.43;100.00;100000.72;4993988;28;20034;-81
2023/07/04 00:15:50;;;;;;;13.32;6.05;;;;;;;16.35;100.00;99993.97;4993216;28;20030;-81
2023/07/04 00:18:20;;;;;;;19.48;7.53;;;;;;;16.32;100.00;100006.59;4977034;28;20066;-81
2023/07/04 00:20:46;;;;;;;16.13;6.47;;;;;;;16.17;100.00;99997.59;5009186;28;20076;-81
2023/07/04 00:23:12;;;;;;;16.55;6.45;;;;;;;16.22;100.00;100005.41;4994768;28;20026;-82
2023/07/04 00:25:37;;;;;;;13.57;6.20;;;;;;;16.18;100.00;100004.91;4992927;28;20042;-80
2023/07/04 00:28:05;;;;;;;10.50;6.30;;;;;;;16.12;100.00;100004.97;4994265;28;20042;-81
2023/07/04 00:30:31;;;;;;;16.80;6.75;;;;;;;16.11;100.00;100006.28;4994229;28;20030;-81
2023/07/04 00:32:57;;;;;;;17.30;6.57;;;;;;;16.04;100.00;100009.78;4996733;28;20054;-80
2023/07/04 00:35:22;;;;;;;17.45;6.80;;;;;;;16.01;100.00;100016.59;4997203;28;20422;-82
2023/07/04 00:37:47;;;;;;;16.70;7.18;;;;;;;15.99;100.00;100007.72;5015201;28;20081;-82
2023/07/04 00:40:13;;;;;;;18.40;6.85;;;;;;;15.97;100.00;100004.59;5018949;28;20022;-81
2023/07/04 00:42:41;;;;;;;12.60;6.65;;;;;;;15.98;100.00;100016.91;5019149;28;20026;-80
2023/07/04 00:45:20;;;;;;;20.10;6.95;;;;;;;15.97;100.00;100015.34;5011236;28;20031;-81
2023/07/04 00:47:53;;;;;;;13.77;6.57;;;;;;;15.93;100.00;100015.63;4977993;28;20364;-81
2023/07/04 00:50:27;;;;;;;16.42;7.10;;;;;;;15.87;100.00;100006.25;4994469;28;20092;-82
2023/07/04 00:52:54;;;;;;;22.65;7.30;;;;;;;15.83;100.00;100020.19;4993082;28;20030;-82
2023/07/04 00:55:20;;;;;;;17.63;6.43;;;;;;;15.78;100.00;100012.34;4992993;28;20076;-83
2023/07/04 00:57:47;;;;;;;14.88;7.18;;;;;;;15.73;100.00;100013.19;5013062;28;20038;-81
2023/07/04 01:00:20;;;;;;;16.20;6.60;;;;;;;15.72;100.00;100019.47;5013389;28;20383;-81
2023/07/04 01:02:51;;;;;;;18.52;7.45;;;;;;;15.68;100.00;100014.00;4998206;28;20088;-81
2023/07/04 01:05:35;;;;;;;17.57;6.10;;;;;;;15.64;100.00;100011.44;5013570;28;20113;-80
2023/07/04 01:08:15;;;;;;;24.10;6.78;;;;;;;15.58;100.00;100007.78;4997856;28;20037;-81
2023/07/04 01:10:43;;;;;;;13.73;6.90;;;;;;;15.54;100.00;100010.16;4996828;28;20522;-82
2023/07/04 01:13:27;;;;;;;13.77;6.82;;;;;;;15.50;100.00;100014.66;4996731;28;20034;-80
2023/07/04 01:15:52;;;;;;;16.92;6.63;;;;;;;15.46;100.00;100008.41;4997829;28;20088;-81
2023/07/04 01:18:18;;;;;;;15.80;6.47;;;;;;;15.40;100.00;100011.31;4997089;28;20422;-79
2023/07/04 01:20:43;;;;;;;17.65;7.32;;;;;;;15.32;100.00;100016.06;4995652;28;20023;-81
2023/07/04 01:23:16;;;;;;;22.52;6.78;;;;;;;15.30;100.00;100015.06;4995586;28;20490;-82
2023/07/04 01:25:46;;;;;;;18.83;8.23;;;;;;;15.23;100.00;100016.38;4994662;28;20112;-80
2023/07/04 01:28:13;;;;;;;10.80;6.47;;;;;;;15.09;100.00;100006.78;4997007;28;20061;-82
2023/07/04 01:30:40;;;;;;;22.15;7.07;;;;;;;15.15;100.00;100019.06;4995234;28;20387;-80
2023/07/04 01:33:06;;;;;;;9.50;6.22;;;;;;;15.09;100.00;100021.19;5011528;28;20100;-82
2023/07/04 01:35:35;;;;;;;17.02;6.95;;;;;;;15.07;100.00;100025.91;4995988;28;20432;-82
2023/07/04 01:38:00;;;;;;;25.58;7.78;;;;;;;14.87;100.00;100032.81;4996764;28;20489;-82
2023/07/04 01:40:26;;;;;;;12.68;6.78;;;;;;;14.65;100.00;100044.38;4995648;28;20034;-82
2023/07/04 01:42:53;;;;;;;14.25;6.75;;;;;;;14.69;100.00;100042.81;4993888;28;20440;-82
2023/07/04 01:45:19;;;;;;;15.70;6.65;;;;;;;14.73;100.00;100036.78;4994403;28;20053;-81
2023/07/04 01:47:45;;;;;;;18.35;7.35;;;;;;;14.75;100.00;100043.56;4994789;28;20026;-81
2023/07/04 01:50:11;;;;;;;16.35;7.35;;;;;;;14.73;100.00;100031.81;4993822;28;20031;-82
2023/07/04 01:52:38;;;;;;;19.45;7.65;;;;;;;14.73;100.00;100031.03;4995034;28;20038;-80
2023/07/04 01:55:04;;;;;;;15.23;6.85;;;;;;;14.72;100.00;100036.00;5009929;28;20057;-81
2023/07/04 01:57:30;;;;;;;17.30;7.82;;;;;;;14.70;100.00;100032.88;4993413;28;20034;-82
2023/07/04 01:59:55;;;;;;;16.98;7.82;;;;;;;14.67;100.00;100033.16;4993328;28;20431;-82
2023/07/04 02:02:21;;;;;;;30.27;8.43;;;;;;;14.62;100.00;100033.97;4994734;28;20038;-81
2023/07/04 02:04:46;;;;;;;20.23;7.72;;;;;;;14.58;100.00;100024.75;4994734;28;20033;-81
2023/07/04 02:07:12;;;;;;;19.00;7.57;;;;;;;14.54;100.00;100022.16;4994668;28;20026;-81
2023/07/04 02:09:37;;;;;;;15.57;6.45;;;;;;;14.52;100.00;100029.78;4995177;28;20061;-81
2023/07/04 02:12:03;;;;;;;15.73;7.50;;;;;;;14.47;100.00;100037.09;4996561;28;20030;-82
2023/07/04 02:14:28;;;;;;;18.20;7.05;;;;;;;14.42;100.00;100030.06;4996543;28;20030;-80
2023/07/04 02:16:54;;;;;;;16.83;7.32;;;;;;;14.39;100.00;100024.56;4979089;28;20125;-80
2023/07/04 02:19:19;;;;;;;16.17;7.10;;;;;;;14.34;100.00;100031.91;4995655;28;20026;-81
2023/07/04 02:21:45;;;;;;;12.80;6.80;;;;;;;14.34;100.00;100033.97;4996510;28;20459;-80
2023/07/04 02:24:11;;;;;;;20.75;7.85;;;;;;;14.29;100.00;100029.81;4996263;28;20053;-79
2023/07/04 02:26:36;;;;;;;23.88;7.63;;;;;;;14.30;100.00;100027.72;4996332;28;20030;-82
2023/07/04 02:29:02;;;;;;;14.98;7.10;;;;;;;14.28;100.00;100038.97;4996089;28;20026;-81
2023/07/04 02:31:27;;;;;;;17.60;7.57;;;;;;;14.24;100.00;100042.09;4996099;28;20029;-81
2023/07/04 02:33:53;;;;;;;15.23;6.80;;;;;;;14.24;100.00;100041.31;4995045;28;20034;-80
2023/07/04 02:36:18;;;;;;;20.15;7.70;;;;;;;14.19;100.00;100042.88;4996174;28;20534;-82
2023/07/04 02:38:44;;;;;;;11.57;6.82;;;;;;;14.20;100.00;100041.59;4996586;28;20040;-81
2023/07/04 02:41:09;;;;;;;16.85;7.63;;;;;;;14.19;100.00;100033.47;4996185;28;20026;-82
2023/07/04 02:43:35;;;;;;;18.73;8.10;;;;;;;14.19;100.00;100037.16;4996473;28;20061;-82
2023/07/04 02:46:03;;;;;;;9.95;5.38;;;;;;;14.18;100.00;100040.56;5011009;28;20478;-82
2023/07/04 02:48:29;;;;;;;20.65;7.50;;;;;;;14.16;100.00;100038.22;4996189;28;20034;-82
2023/07/04 02:50:55;;;;;;;17.27;6.38;;;;;;;14.15;100.00;100033.75;5011114;28;20030;-81
2023/07/04 02:53:22;;;;;;;13.10;6.93;;;;;;;14.16;100.00;100031.66;4995819;28;20085;-82
2023/07/04 02:55:48;;;;;;;20.00;7.72;;;;;;;14.11;100.00;100024.63;5011084;28;20078;-81
2023/07/04 02:58:14;;;;;;;16.48;6.60;;;;;;;14.16;100.00;100035.34;4995920;28;20033;-83
2023/07/04 03:00:41;;;;;;;18.10;7.03;;;;;;;14.17;100.00;100033.25;4995511;28;20022;-82
2023/07/04 03:03:07;;;;;;;17.42;7.03;;;;;;;14.15;100.00;100030.88;5010794;28;20476;-82
2023/07/04 03:05:32;;;;;;;13.00;6.82;;;;;;;14.14;100.00;100032.19;4995654;28;20038;-82
2023/07/04 03:07:57;;;;;;;13.02;6.35;;;;;;;14.12;100.00;100023.31;4995714;28;20030;-82
2023/07/04 03:10:23;;;;;;;20.95;6.20;;;;;;;14.12;100.00;100017.56;4995551;28;20025;-82
2023/07/04 03:12:48;;;;;;;16.52;6.38;;;;;;;14.13;100.00;100021.25;4995625;28;20026;-81
2023/07/04 03:15:14;;;;;;;10.07;5.72;;;;;;;14.16;100.00;100023.84;4995376;28;20030;-82
2023/07/04 03:17:39;;;;;;;13.82;7.03;;;;;;;14.18;100.00;100024.06;4994406;28;20364;-81
2023/07/04 03:20:09;;;;;;;18.20;6.55;;;;;;;14.18;100.00;100018.34;4995731;28;20030;-81
2023/07/04 03:22:35;;;;;;;14.50;5.78;;;;;;;14.26;100.00;100018.59;4994730;28;20101;-81
2023/07/04 03:25:00;;;;;;;22.15;6.13;;;;;;;14.31;100.00;100020.66;4996906;28;20050;-82
2023/07/04 03:27:26;;;;;;;11.20;5.45;;;;;;;14.37;100.00;100019.34;4997264;28;20074;-80
2023/07/04 03:29:51;;;;;;;17.42;5.70;;;;;;;14.43;100.00;100025.06;4995779;28;20442;-81
2023/07/04 03:32:16;;;;;;;19.45;5.93;;;;;;;14.49;100.00;100022.97;4995422;28;20034;-81
2023/07/04 03:34:42;;;;;;;26.92;6.93;;;;;;;14.57;100.00;100031.84;4995714;28;20507;-81
2023/07/04 03:37:07;;;;;;;36.88;7.65;;;;;;;14.60;100.00;100025.06;4995299;28;20464;-82
2023/07/04 03:39:33;;;;;;;19.73;6.35;;;;;;;14.64;100.00;100022.69;4994062;28;20117;-83
2023/07/04 03:41:58;;;;;;;16.90;5.43;;;;;;;14.61;100.00;100018.00;4995114;28;20109;-81
2023/07/04 03:44:23;;;;;;;12.95;5.70;;;;;;;14.65;100.00;100024.25;4993749;28;20027;-81
2023/07/04 03:46:49;;;;;;;15.75;5.78;;;;;;;14.67;100.00;100033.94;4994966;28;20026;-81
2023/07/04 03:49:15;;;;;;;11.93;5.13;;;;;;;14.67;100.00;100036.03;4993619;28;20136;-81
2023/07/04 03:51:40;;;;;;;7.80;4.60;;;;;;;14.71;100.00;100022.94;4994827;28;20019;-80
2023/07/04 03:54:07;;;;;;;11.55;4.63;;;;;;;14.79;100.00;100026.03;5009593;28;20042;-81
2023/07/04 03:56:32;;;;;;;12.00;4.95;;;;;;;14.81;100.00;100023.41;4993606;28;20038;-81
2023/07/04 03:58:59;;;;;;;12.75;4.85;;;;;;;14.98;100.00;100029.88;4994756;28;20044;-81
2023/07/04 04:01:24;;;;;;;12.07;4.95;;;;;;;15.09;100.00;100031.91;4994857;28;20077;-81
2023/07/04 04:03:53;;;;;;;14.63;4.93;;;;;;;15.17;100.00;100036.56;4994938;28;20034;-81
2023/07/04 04:06:19;;;;;;;12.15;4.78;;;;;;;15.28;100.00;100029.97;4994997;28;20034;-82
2023/07/04 04:08:46;;;;;;;11.90;5.20;;;;;;;15.32;100.00;100026.81;4993509;28;20092;-81
2023/07/04 04:11:12;;;;;;;10.77;4.55;;;;;;;15.47;100.00;100039.53;4994551;28;20068;-81
2023/07/04 04:13:37;;;;;;;14.32;5.05;;;;;;;15.55;100.00;100028.22;4994606;28;20026;-81
2023/07/04 04:16:03;;;;;;;10.60;5.40;;;;;;;15.61;100.00;100037.66;4994855;28;20022;-81
2023/07/04 04:18:30;;;;;;;12.02;4.78;;;;;;;15.66;100.00;100036.81;4993211;28;20025;-82
2023/07/04 04:20:58;;;;;;;11.00;5.32;;;;;;;15.75;100.00;100044.34;4982639;28;20031;-81
2023/07/04 04:23:24;;;;;;;18.42;5.47;;;;;;;15.83;100.00;100040.34;4973911;28;20090;-81
2023/07/04 04:25:50;;;;;;;8.23;4.35;;;;;;;15.93;100.00;100046.56;4973518;28;20062;-81
2023/07/04 04:28:16;;;;;;;12.48;5.03;;;;;;;15.95;100.00;100044.72;4975187;28;20031;-82
2023/07/04 04:30:43;;;;;;;19.70;6.03;;;;;;;16.00;100.00;100052.53;4979522;28;20035;-79
2023/07/04 04:33:10;;;;;;;20.25;5.07;;;;;;;16.06;100.00;100047.47;4993213;28;20365;-81
2023/07/04 04:35:47;;;;;;;16.13;5.70;;;;;;;16.13;100.00;100055.53;4993399;28;20030;-81
2023/07/04 04:38:13;;;;;;;16.75;6.13;;;;;;;16.20;100.00;100045.53;5009207;28;20479;-81
2023/07/04 04:40:39;;;;;;;18.70;5.82;;;;;;;16.27;100.00;100036.28;4992847;28;20033;-80
2023/07/04 04:43:05;;;;;;;12.43;5.30;;;;;;;16.36;100.00;100047.44;4976721;28;20045;-82
2023/07/04 04:45:32;;;;;;;9.73;5.25;;;;;;;16.39;100.00;100051.38;4993056;28;20116;-82
2023/07/04 04:48:01;;;;;;;16.20;5.85;;;;;;;16.43;100.00;100048.97;4997057;28;20026;-81
2023/07/04 04:50:32;;;;;;;12.82;5.40;;;;;;;16.39;100.00;100031.97;4985335;28;20035;-82
2023/07/04 04:53:00;;;;;;;15.60;6.03;;;;;;;16.56;100.00;100049.09;5005534;28;20030;-81
2023/07/04 04:55:26;;;;;;;17.33;5.50;;;;;;;16.61;100.00;100054.03;5015716;28;20026;-81
2023/07/04 04:57:52;;;;;;;18.25;6.18;;;;;;;16.70;100.00;100056.56;5018388;28;20108;-83
2023/07/04 05:00:19;;;;;;;15.35;5.63;;;;;;;16.78;100.00;100050.97;4991656;28;20035;-84
2023/07/04 05:02:46;;;;;;;11.32;5.40;;;;;;;16.85;100.00;100051.13;4994425;28;20031;-83
2023/07/04 05:05:12;;;;;;;27.55;6.22;;;;;;;16.93;100.00;100062.84;4995734;28;20027;-82
2023/07/04 05:07:39;;;;;;;21.10;5.95;;;;;;;17.03;100.00;100045.94;4993577;28;20034;-81
2023/07/04 05:10:05;;;;;;;15.30;5.47;;;;;;;17.16;100.00;100055.47;4995318;28;20413;-83
2023/07/04 05:12:35;;;;;;;20.70;6.10;;;;;;;17.32;100.00;100062.34;4995835;28;20030;-83
2023/07/04 05:15:00;;;;;;;12.45;5.43;;;;;;;17.36;100.00;100054.94;4979726;28;20093;-85
2023/07/04 05:17:26;;;;;;;14.57;5.30;;;;;;;17.53;100.00;100060.50;4977352;28;20424;-84
2023/07/04 05:19:52;;;;;;;13.95;5.18;;;;;;;17.65;100.00;100064.00;4975267;28;20027;-81
2023/07/04 05:22:19;;;;;;;14.35;5.50;;;;;;;17.71;100.00;100067.59;4974543;28;20050;-79
2023/07/04 05:24:45;;;;;;;14.88;5.75;;;;;;;17.78;100.00;100064.81;4990180;28;20132;-84
2023/07/04 05:27:12;;;;;;;13.43;5.60;;;;;;;17.87;100.00;100075.22;4985202;28;20053;-83
2023/07/04 05:29:39;;;;;;;12.10;5.85;;;;;;;17.93;100.00;100072.25;4986907;28;20595;-83
2023/07/04 05:32:04;;;;;;;12.23;5.53;;;;;;;17.96;100.00;100062.47;4987275;28;20026;-84
2023/07/04 05:34:31;;;;;;;11.20;5.35;;;;;;;18.11;100.00;100077.19;5009615;28;20031;-85
2023/07/04 05:36:57;;;;;;;15.57;6.07;;;;;;;18.24;100.00;100068.53;4994013;28;20037;-84
2023/07/04 05:39:24;;;;;;;12.73;5.75;;;;;;;18.32;100.00;100066.59;4992970;28;20117;-82
2023/07/04 05:41:50;;;;;;;15.13;5.82;;;;;;;18.44;100.00;100067.94;4992770;28;20372;-84
2023/07/04 05:44:17;;;;;;;17.27;5.22;;;;;;;18.57;100.00;100073.00;4996099;28;20030;-81
2023/07/04 05:46:42;;;;;;;16.08;5.82;;;;;;;18.68;100.00;100076.44;4995976;28;20053;-82
2023/07/04 05:49:07;;;;;;;18.60;5.93;;;;;;;18.85;100.00;100078.22;4997057;28;20415;-81
2023/07/04 05:51:33;;;;;;;12.15;5.63;;;;;;;19.04;100.00;100073.09;4994903;28;20042;-81
2023/07/04 05:53:58;;;;;;;13.43;5.95;;;;;;;19.18;100.00;100065.97;4996427;28;20070;-82
2023/07/04 05:56:27;;;;;;;13.43;5.25;;;;;;;19.78;100.00;100073.84;4996101;28;20081;-82
2023/07/04 05:59:01;;;;;;;10.60;4.78;;;;;;;20.93;100.00;100059.03;4997011;28;20041;-83
2023/07/04 06:01:44;;;;;;;12.93;5.13;;;;;;;22.58;100.00;100068.03;4995330;28;20109;-80
2023/07/04 06:04:11;;;;;;;8.15;4.68;;;;;;;24.38;100.00;100075.94;4977680;28;20041;-83
2023/07/04 06:06:40;;;;;;;10.48;4.50;;;;;;;25.99;79.23;100086.06;4977622;28;20034;-82
2023/07/04 06:09:08;;;;;;;22.23;5.25;;;;;;;27.23;73.89;100090.88;4977501;28;20031;-83
2023/07/04 06:11:36;;;;;;;24.15;5.47;;;;;;;28.40;77.98;100093.81;4977242;28;20027;-84
2023/07/04 06:14:02;;;;;;;10.98;4.90;;;;;;;28.96;53.41;100102.22;4976426;28;20027;-83
2023/07/04 06:16:28;;;;;;;11.60;4.07;;;;;;;29.75;62.27;100095.94;4977079;28;20126;-83
2023/07/04 06:18:53;;;;;;;24.23;5.50;;;;;;;30.58;50.04;100108.06;4978111;28;20429;-84
2023/07/04 06:21:21;;;;;;;7.25;3.47;;;;;;;31.46;46.67;100110.53;4975820;28;20022;-83
2023/07/04 06:23:46;;;;;;;13.13;3.75;;;;;;;32.58;43.59;100097.91;4976949;28;20027;-82
2023/07/04 06:26:13;;;;;;;7.50;3.65;;;;;;;33.45;38.21;100105.59;4976979;28;20051;-82
2023/07/04 06:28:39;;;;;;;18.92;4.32;;;;;;;33.68;32.81;100114.22;4977381;28;20027;-82
2023/07/04 06:31:13;;;;;;;17.77;5.28;;;;;;;33.65;33.13;100109.59;4976767;28;20058;-83
2023/07/04 06:33:39;;;;;;;12.48;3.22;;;;;;;34.35;30.48;100112.44;4977264;28;20081;-81
2023/07/04 06:36:09;;;;;;;12.57;3.83;;;;;;;34.17;32.70;100105.59;4977526;28;20035;-84
2023/07/04 06:38:34;;;;;;;6.20;3.22;;;;;;;34.34;30.69;100110.91;4977421;28;20507;-85
2023/07/04 06:41:06;;;;;;;11.25;3.10;;;;;;;34.53;34.66;100115.50;4991931;28;20043;-81
2023/07/04 06:43:32;;;;;;;7.97;3.20;;;;;;;34.94;30.69;100111.50;4975393;28;20081;-81
2023/07/04 06:45:58;;;;;;;27.88;5.75;;;;;;;35.41;27.40;100112.16;4976040;28;20058;-83
2023/07/04 06:48:24;;;;;;;8.07;3.45;;;;;;;34.96;29.96;100115.31;4979124;28;20081;-77
2023/07/04 06:51:02;;;;;;;22.90;4.82;;;;;;;35.45;28.09;100103.44;4991812;28;20026;-77
2023/07/04 06:53:28;;;;;;;10.65;3.30;;;;;;;35.83;28.60;100109.53;4976198;28;20034;-76
2023/07/04 06:56:03;;;;;;;11.07;4.10;;;;;;;34.72;27.62;100117.94;4976320;28;20110;-78
2023/07/04 06:58:29;;;;;;;8.45;3.90;;;;;;;34.31;29.53;100115.19;4978139;28;20034;-78
2023/07/04 07:00:55;;;;;;;9.25;3.85;;;;;;;34.46;29.06;100112.94;4995554;28;20094;-76
2023/07/04 07:03:21;;;;;;;8.43;3.90;;;;;;;34.16;29.95;100106.28;4995683;28;20368;-79
2023/07/04 07:05:46;;;;;;;13.68;3.35;;;;;;;33.96;29.40;100111.94;4994454;28;20033;-80
2023/07/04 07:08:14;;;;;;;7.38;3.42;;;;;;;32.80;30.44;100113.19;4995802;28;20058;-77
2023/07/04 07:10:40;;;;;;;8.65;3.17;;;;;;;32.06;31.37;100122.28;4995386;28;20033;-76
2023/07/04 07:13:05;;;;;;;7.05;3.42;;;;;;;31.69;31.90;100120.16;4995779;28;20109;-77
2023/07/04 07:15:31;;;;;;;6.93;2.88;;;;;;;32.52;30.56;100113.13;4994203;28;20364;-76
2023/07/04 07:17:56;;;;;;;8.40;3.33;;;;;;;33.36;30.19;100116.28;4995300;28;20026;-77
2023/07/04 07:20:22;;;;;;;8.93;3.42;;;;;;;34.19;26.26;100110.88;4995879;28;20102;-79
2023/07/04 07:22:47;;;;;;;5.13;2.80;;;;;;;34.85;26.20;100104.44;4995420;28;20069;-78
2023/07/04 07:25:13;;;;;;;7.03;3.38;;;;;;;35.26;25.83;100106.28;4993889;28;20100;-77
2023/07/04 07:27:38;;;;;;;8.13;3.60;;;;;;;34.29;27.62;100103.22;4994550;28;20078;-77
2023/07/04 07:30:04;;;;;;;7.68;3.05;;;;;;;33.71;28.34;100107.00;4995526;28;20026;-78
2023/07/04 07:32:30;;;;;;;4.85;2.70;;;;;;;32.22;29.69;100112.19;4996655;28;20042;-77
2023/07/04 07:34:56;;;;;;;7.97;2.97;;;;;;;33.01;30.00;100116.59;4995879;28;20498;-77
2023/07/04 07:37:22;;;;;;;8.35;3.45;;;;;;;33.90;28.47;100109.44;4995802;28;20022;-77
2023/07/04 07:39:50;;;;;;;11.60;3.58;;;;;;;34.94;26.75;100109.31;4996337;28;20177;-78
2023/07/04 07:42:16;;;;;;;7.35;2.70;;;;;;;34.33;27.08;100108.59;4995240;28;20085;-77
2023/07/04 07:44:41;;;;;;;7.38;3.45;;;;;;;34.75;27.55;100100.97;4995188;28;20030;-76
2023/07/04 07:47:10;;;;;;;7.50;3.55;;;;;;;34.92;25.45;100097.31;4995057;28;20029;-77
2023/07/04 07:49:36;;;;;;;10.60;3.15;;;;;;;34.92;26.42;100097.31;4993785;28;20030;-76
2023/07/04 07:52:01;;;;;;;5.28;3.03;;;;;;;35.70;27.23;100093.38;4997470;28;20041;-78
2023/07/04 07:54:26;;;;;;;8.98;3.40;;;;;;;36.61;25.61;100093.41;4999891;28;20022;-78
2023/07/04 07:56:52;;;;;;;7.05;3.22;;;;;;;34.73;26.52;100086.03;4994943;28;20045;-78
2023/07/04 07:59:17;;;;;;;7.72;4.15;;;;;;;33.48;26.94;100099.09;4995119;28;20112;-76
2023/07/04 08:01:43;;;;;;;6.32;4.20;;;;;;;34.39;25.49;100094.06;4994939;28;20026;-77
2023/07/04 08:04:08;;;;;;;7.85;3.88;;;;;;;33.96;25.58;100108.22;5001065;28;20086;-79
2023/07/04 08:06:39;;;;;;;5.70;3.30;;;;;;;33.02;27.94;100099.59;4998490;28;20030;-78
2023/07/04 08:09:08;;;;;;;6.43;4.05;;;;;;;33.27;26.29;100098.72;5001875;28;20484;-75
2023/07/04 08:11:34;;;;;;;8.73;3.78;;;;;;;34.38;26.03;100086.56;4997563;28;20034;-77
2023/07/04 08:14:00;;;;;;;8.05;3.88;;;;;;;35.36;25.32;100086.69;4996975;28;20456;-79
2023/07/04 08:16:28;;;;;;;6.43;4.00;;;;;;;36.29;24.48;100081.72;4999787;28;20092;-79
2023/07/04 08:18:54;;;;;;;9.80;4.53;;;;;;;36.81;23.60;100079.28;5003774;28;20113;-79
2023/07/04 08:21:20;;;;;;;8.27;4.18;;;;;;;36.87;23.73;100076.53;5001486;28;20072;-78
2023/07/04 08:23:46;;;;;;;8.43;3.90;;;;;;;36.89;23.39;100079.63;4994305;28;20038;-74
2023/07/04 08:26:22;;;;;;;8.18;4.07;;;;;;;37.40;22.74;100073.31;4992766;28;20519;-73
2023/07/04 08:28:47;;;;;;;8.13;3.88;;;;;;;37.24;23.26;100064.53;4992795;28;20033;-78
2023/07/04 08:31:13;;;;;;;8.02;4.30;;;;;;;36.73;23.64;100076.75;4993256;28;20030;-75
2023/07/04 08:33:39;;;;;;;11.15;5.43;;;;;;;37.30;22.28;100081.88;4994063;28;20022;-74
2023/07/04 08:36:08;;;;;;;9.32;5.28;;;;;;;36.54;22.55;100071.56;4993789;28;20029;-74
2023/07/04 08:38:33;;;;;;;6.65;4.70;;;;;;;36.53;23.56;100060.34;4976549;28;20041;-74
2023/07/04 08:40:59;;;;;;;9.88;4.55;;;;;;;36.99;22.95;100071.06;4992587;28;20027;-74
2023/07/04 08:43:33;;;;;;;7.22;4.53;;;;;;;36.35;23.80;100078.97;4992849;28;20030;-74
2023/07/04 08:46:00;;;;;;;23.08;5.63;;;;;;;35.63;24.34;100082.69;4994004;28;20105;-73
2023/07/04 08:48:26;;;;;;;16.30;6.00;;;;;;;36.02;23.60;100070.19;4993732;28;20022;-74
2023/07/04 08:50:53;;;;;;;14.82;5.88;;;;;;;36.35;22.99;100076.00;4992803;28;20087;-76
2023/07/04 08:53:21;;;;;;;15.68;6.40;;;;;;;36.28;23.49;100068.28;4993986;28;20080;-72
2023/07/04 08:55:59;;;;;;;10.35;6.20;;;;;;;36.11;23.24;100060.16;4994317;28;20034;-73
2023/07/04 08:58:30;;;;;;;9.65;5.30;;;;;;;35.63;23.09;100070.03;4993981;28;20036;-73
2023/07/04 09:00:58;;;;;;;7.43;4.80;;;;;;;34.92;25.79;100075.75;4992392;28;20472;-73
2023/07/04 09:03:52;;;;;;;11.48;4.85;;;;;;;34.97;24.91;100071.53;4976257;28;20034;-73
2023/07/04 09:06:29;;;;;;;11.52;5.13;;;;;;;35.02;25.73;100079.94;5007579;28;20050;-74
2023/07/04 09:09:15;;;;;;;7.40;4.75;;;;;;;35.19;25.75;100091.16;4993843;28;20049;-74
2023/07/04 09:11:41;;;;;;;8.10;4.90;;;;;;;35.02;25.90;100085.13;4998207;28;20065;-74
2023/07/04 09:14:18;;;;;;;13.18;6.38;;;;;;;35.15;24.99;100090.97;4999981;28;20034;-75
2023/07/04 09:16:47;;;;;;;7.10;5.25;;;;;;;35.05;26.13;100086.75;4999558;28;20046;-74
2023/07/04 09:19:17;;;;;;;8.45;5.35;;;;;;;35.41;25.84;100076.50;4999750;28;20030;-74
2023/07/04 09:21:42;;;;;;;7.53;5.37;;;;;;;35.05;26.15;100080.81;4996436;28;20444;-76
2023/07/04 09:24:08;;;;;;;7.40;4.95;;;;;;;34.58;26.57;100087.53;4997261;28;20109;-78
2023/07/04 09:26:33;;;;;;;9.40;5.25;;;;;;;34.52;27.12;100077.56;4997884;28;20093;-77
2023/07/04 09:28:58;;;;;;;8.35;5.55;;;;;;;34.51;26.05;100082.00;4997851;28;20486;-75
2023/07/04 09:31:29;;;;;;;8.85;4.90;;;;;;;34.22;26.74;100076.88;4997670;28;20353;-75
2023/07/04 09:33:55;;;;;;;8.55;5.32;;;;;;;34.42;26.81;100086.00;4997624;28;20387;-75
2023/07/04 09:36:25;;;;;;;13.75;5.95;;;;;;;34.20;25.22;100089.44;4997564;28;20033;-74
2023/07/04 09:38:52;;;;;;;9.65;6.05;;;;;;;33.87;26.39;100086.25;4996013;28;20030;-76
2023/07/04 09:41:18;;;;;;;8.55;4.85;;;;;;;33.12;27.43;100076.44;4995789;28;20037;-75
2023/07/04 09:43:44;;;;;;;7.78;5.07;;;;;;;32.63;28.91;100093.75;4996112;28;20034;-75
2023/07/04 09:46:11;;;;;;;9.23;5.38;;;;;;;32.65;28.52;100102.72;4997370;28;20033;-74
2023/07/04 09:48:36;;;;;;;7.72;4.75;;;;;;;32.92;28.58;100102.00;4979894;28;20061;-78
2023/07/04 09:51:29;;;;;;;9.90;5.80;;;;;;;32.99;27.05;100107.59;4996079;28;20460;-77
2023/07/04 09:54:13;;;;;;;7.95;5.43;;;;;;;32.96;26.65;100105.97;4996226;28;20038;-76
2023/07/04 09:56:40;;;;;;;23.75;7.05;;;;;;;32.77;27.50;100103.44;5012574;28;20022;-78
2023/07/04 09:59:13;;;;;;;19.13;6.32;;;;;;;32.32;28.51;100099.38;4997371;28;20026;-76
2023/07/04 10:02:11;;;;;;;11.13;5.72;;;;;;;31.93;29.35;100111.16;4996767;28;20383;-78
2023/07/04 10:04:37;;;;;;;13.18;5.60;;;;;;;31.52;30.57;100113.88;5006920;28;20551;-77
2023/07/04 10:07:04;;;;;;;8.15;5.20;;;;;;;31.36;30.04;100107.75;4994966;28;20053;-79
2023/07/04 10:09:30;;;;;;;11.18;5.75;;;;;;;31.61;29.38;100107.81;4993405;28;20108;-79
2023/07/04 10:12:13;;;;;;;10.73;5.80;;;;;;;31.67;29.56;100092.63;4993579;28;20350;-78
2023/07/04 10:14:48;;;;;;;9.73;5.55;;;;;;;31.76;30.46;100101.34;4993362;28;20030;-76
2023/07/04 10:17:32;;;;;;;11.10;5.30;;;;;;;31.92;30.32;100101.53;4994476;28;20034;-75
2023/07/04 10:20:03;;;;;;;14.30;6.03;;;;;;;31.89;30.18;100105.03;4992807;28;20049;-78
2023/07/04 10:22:31;;;;;;;9.80;5.90;;;;;;;31.68;30.70;100088.28;4977241;28;20030;-78
2023/07/04 10:24:59;;;;;;;8.20;5.05;;;;;;;31.52;30.20;100091.00;4994604;28;20054;-76
2023/07/04 10:27:34;;;;;;;10.45;5.15;;;;;;;31.48;29.69;100108.50;4996414;28;20049;-75
2023/07/04 10:30:03;;;;;;;13.15;6.15;;;;;;;31.44;31.37;100095.66;4995247;28;20372;-77
2023/07/04 10:32:28;;;;;;;13.32;5.72;;;;;;;31.23;30.82;100079.69;4978637;28;20122;-78
2023/07/04 10:34:54;;;;;;;8.98;4.22;;;;;;;30.97;30.50;100095.75;4994878;28;20065;-77
2023/07/04 10:37:27;;;;;;;6.18;3.95;;;;;;;30.59;30.65;100085.22;4996346;28;20030;-77
2023/07/04 10:39:56;;;;;;;10.73;4.82;;;;;;;30.28;33.00;100094.28;4995071;28;20030;-76
2023/07/04 10:42:45;;;;;;;6.53;4.50;;;;;;;30.12;32.25;100105.03;4995019;28;20026;-77
2023/07/04 10:45:14;;;;;;;7.80;5.07;;;;;;;29.87;33.28;100090.09;4994723;28;20026;-77
2023/07/04 10:47:39;;;;;;;6.93;4.70;;;;;;;29.57;34.45;100097.66;4995105;28;20031;-77
2023/07/04 10:50:09;;;;;;;8.32;4.72;;;;;;;29.26;33.17;100091.84;4995246;28;20023;-76
2023/07/04 10:52:36;;;;;;;8.60;4.82;;;;;;;29.12;35.02;100109.28;4996240;28;20117;-75
2023/07/04 10:55:02;;;;;;;9.50;4.63;;;;;;;28.92;33.27;100101.19;4995970;28;20042;-76
2023/07/04 10:57:56;;;;;;;9.50;4.93;;;;;;;28.35;33.65;100080.22;4995919;28;20026;-79
2023/07/04 11:00:26;;;;;;;8.70;4.95;;;;;;;28.15;35.71;100090.50;4994763;28;20054;-77
2023/07/04 11:03:14;;;;;;;10.88;5.43;;;;;;;28.18;38.65;100097.31;4994676;28;20412;-76
2023/07/04 11:05:42;;;;;;;11.13;6.93;;;;;;;28.17;37.64;100104.56;4995474;28;20130;-77
2023/07/04 11:08:17;;;;;;;10.73;5.93;;;;;;;28.18;35.78;100091.44;4994365;28;20027;-77
2023/07/04 11:10:46;;;;;;;19.98;7.45;;;;;;;28.09;37.39;100095.19;4994545;28;20118;-75
2023/07/04 11:13:20;;;;;;;10.27;5.70;;;;;;;28.18;36.50;100088.50;4994488;28;20480;-78
2023/07/04 11:15:54;;;;;;;12.88;5.82;;;;;;;28.18;36.43;100092.22;4995776;28;20027;-77
2023/07/04 11:18:26;;;;;;;9.45;5.20;;;;;;;28.01;38.84;100093.16;4994308;28;20121;-74